createdAt,value
2019-05-12T00:01:09.551Z,101537.59
2019-05-12T00:03:43.703Z,101543.70
2019-05-12T00:06:17.987Z,101544.88
2019-05-12T00:08:52.330Z,101543.26
2019-05-12T00:11:28.728Z,101540.38
2019-05-12T00:14:02.784Z,101547.23
2019-05-12T00:16:38.428Z,101547.38
2019-05-12T00:19:11.836Z,101553.01
2019-05-12T00:21:45.546Z,101562.13
2019-05-12T00:24:22.109Z,101562.11
2019-05-12T00:26:58.037Z,101566.92
2019-05-12T00:29:31.875Z,101561.69
2019-05-12T00:32:05.515Z,101575.52
2019-05-12T00:34:39.266Z,101574.38
2019-05-12T00:37:13.272Z,101586.92
2019-05-12T00:39:47.836Z,101595.98
2019-05-12T00:42:21.733Z,101601.03
2019-05-12T00:44:58.552Z,101605.86
2019-05-12T00:47:32.348Z,101614.50
2019-05-12T00:50:08.126Z,101619.65
2019-05-12T00:52:41.366Z,101626.24
2019-05-12T00:55:15.219Z,101629.66
2019-05-12T00:57:49.051Z,101630.55
2019-05-12T01:00:23.209Z,101645.27
2019-05-12T01:02:58.057Z,101644.92
2019-05-12T01:05:32.765Z,101649.69
2019-05-12T01:08:08.915Z,101649.69
2019-05-12T01:10:42.360Z,101660.84
2019-05-12T01:13:18.644Z,101659.89
2019-05-12T01:15:52.937Z,101666.89
2019-05-12T01:18:28.003Z,101668.64
2019-05-12T01:21:02.880Z,101672.14
2019-05-12T01:23:51.911Z,101667.46
2019-05-12T01:26:14.632Z,101670.94
2019-05-12T01:28:48.936Z,101673.58
2019-05-12T01:31:24.362Z,101668.81
2019-05-12T01:33:58.717Z,101672.72
2019-05-12T01:36:32.941Z,101671.30
2019-05-12T01:39:09.823Z,101676.99
2019-05-12T01:41:43.971Z,101683.44
2019-05-12T01:44:18.443Z,101686.05
2019-05-12T01:46:52.249Z,101687.82
2019-05-12T01:49:25.935Z,101697.17
2019-05-12T01:52:00.134Z,101706.14
2019-05-12T01:54:35.552Z,101710.11
2019-05-12T01:57:09.521Z,101722.56
2019-05-12T01:59:44.915Z,101718.75
2019-05-12T02:02:20.075Z,101723.90
2019-05-12T02:05:10.163Z,101731.17
2019-05-12T02:07:52.340Z,101738.07
2019-05-12T02:10:28.648Z,101745.77
2019-05-12T02:13:02.968Z,101756.94
2019-05-12T02:15:38.511Z,101755.65
2019-05-12T02:18:13.523Z,101758.33
2019-05-12T02:20:48.321Z,101765.19
2019-05-12T02:23:22.321Z,101764.77
2019-05-12T02:25:55.967Z,101771.23
2019-05-12T02:28:29.850Z,101773.84
2019-05-12T02:31:05.033Z,101773.42
2019-05-12T02:33:38.897Z,101777.34
2019-05-12T02:36:15.055Z,101778.59
2019-05-12T02:38:48.566Z,101782.93
2019-05-12T02:41:25.675Z,101784.25
2019-05-12T02:43:58.067Z,101788.92
2019-05-12T02:46:34.883Z,101793.67
2019-05-12T02:49:07.513Z,101805.66
2019-05-12T02:51:41.569Z,101811.22
2019-05-12T02:54:18.392Z,101815.48
2019-05-12T02:56:55.136Z,101812.52
2019-05-12T02:59:34.698Z,101818.97
2019-05-12T03:02:16.324Z,101821.12
2019-05-12T03:04:54.792Z,101827.52
2019-05-12T03:07:34.425Z,101827.52
2019-05-12T03:10:09.420Z,101834.41
2019-05-12T03:12:45.251Z,101838.25
2019-05-12T03:15:19.040Z,101836.55
2019-05-12T03:17:54.628Z,101842.53
2019-05-12T03:20:29.041Z,101840.83
2019-05-12T03:23:06.876Z,101843.41
2019-05-12T03:25:41.227Z,101853.68
2019-05-12T03:28:16.278Z,101858.80
2019-05-12T03:30:57.586Z,101857.54
2019-05-12T03:33:40.592Z,101860.95
2019-05-12T03:36:08.899Z,101860.52
2019-05-12T03:38:44.760Z,101860.11
2019-05-12T03:41:19.341Z,101865.64
2019-05-12T03:43:55.010Z,101869.91
2019-05-12T03:46:29.905Z,101870.34
2019-05-12T03:49:05.360Z,101876.77
2019-05-12T03:51:41.320Z,101877.61
2019-05-12T03:54:15.524Z,101883.19
2019-05-12T03:56:49.782Z,101883.61
2019-05-12T03:59:25.580Z,101881.91
2019-05-12T04:02:00.102Z,101876.32
2019-05-12T04:04:34.968Z,101876.77
2019-05-12T04:07:08.786Z,101892.60
2019-05-12T04:09:46.980Z,101897.28
2019-05-12T04:12:20.640Z,101904.93
2019-05-12T04:14:55.191Z,101910.69
2019-05-12T04:17:29.686Z,101902.23
2019-05-12T04:20:05.869Z,101905.70
2019-05-12T04:22:39.601Z,101913.80
2019-05-12T04:25:14.632Z,101917.05
2019-05-12T04:27:48.750Z,101915.47
2019-05-12T04:30:25.447Z,101929.95
2019-05-12T04:33:00.785Z,101930.26
2019-05-12T04:35:35.411Z,101931.82
2019-05-12T04:38:09.718Z,101932.53
2019-05-12T04:40:45.258Z,101939.01
2019-05-12T04:43:19.486Z,101944.69
2019-05-12T04:45:54.943Z,101950.36
2019-05-12T04:48:29.107Z,101958.34
2019-05-12T04:51:05.014Z,101961.66
2019-05-12T04:53:38.304Z,101968.03
2019-05-12T04:56:24.749Z,101970.25
2019-05-12T04:58:57.830Z,101979.64
2019-05-12T05:01:34.679Z,101984.30
2019-05-12T05:04:08.709Z,101985.41
2019-05-12T05:06:44.986Z,101994.80
2019-05-12T05:09:24.578Z,101992.37
2019-05-12T05:11:57.571Z,101999.00
2019-05-12T05:14:33.860Z,102002.11
2019-05-12T05:17:08.667Z,102001.94
2019-05-12T05:19:44.212Z,102007.96
2019-05-12T05:22:18.022Z,102014.86
2019-05-12T05:24:53.607Z,102016.73
2019-05-12T05:27:27.469Z,102018.72
2019-05-12T05:30:03.951Z,102029.90
2019-05-12T05:32:38.676Z,102032.17
2019-05-12T05:35:15.049Z,102038.71
2019-05-12T05:37:48.697Z,102040.55
2019-05-12T05:40:25.967Z,102047.79
2019-05-12T05:42:57.881Z,102050.16
2019-05-12T05:45:31.789Z,102049.53
2019-05-12T05:48:10.072Z,102056.14
2019-05-12T05:50:43.833Z,102061.48
2019-05-12T05:53:19.731Z,102058.06
2019-05-12T05:56:00.095Z,102062.86
2019-05-12T05:58:33.916Z,102065.87
2019-05-12T06:01:08.271Z,102074.47
2019-05-12T06:03:44.134Z,102074.23
2019-05-12T06:06:17.728Z,102079.44
2019-05-12T06:09:00.950Z,102080.09
2019-05-12T06:11:35.003Z,102091.89
2019-05-12T06:14:14.059Z,102093.63
2019-05-12T06:16:44.146Z,102101.50
2019-05-12T06:19:17.773Z,102113.84
2019-05-12T06:21:53.403Z,102105.06
2019-05-12T06:24:26.951Z,102105.94
2019-05-12T06:27:00.950Z,102107.47
2019-05-12T06:29:35.945Z,102108.39
2019-05-12T06:32:11.005Z,102103.16
2019-05-12T06:34:45.066Z,102109.34
2019-05-12T06:37:18.823Z,102115.96
2019-05-12T06:39:56.475Z,102114.16
2019-05-12T06:42:29.765Z,102118.43
2019-05-12T06:45:04.899Z,102134.14
2019-05-12T06:47:39.492Z,102136.13
2019-05-12T06:50:17.042Z,102126.02
2019-05-12T06:52:52.758Z,102127.12
2019-05-12T06:55:28.668Z,102123.17
2019-05-12T06:58:04.668Z,102127.72
2019-05-12T07:00:39.266Z,102132.52
2019-05-12T07:03:14.253Z,102132.89
2019-05-12T07:05:49.636Z,102136.42
2019-05-12T07:08:29.961Z,102136.34
2019-05-12T07:11:05.930Z,102139.63
2019-05-12T07:13:38.314Z,102149.11
2019-05-12T07:16:23.244Z,102148.77
2019-05-12T07:18:54.224Z,102151.02
2019-05-12T07:21:30.656Z,102153.41
2019-05-12T07:24:09.603Z,102146.20
2019-05-12T07:26:41.526Z,102151.25
2019-05-12T07:29:15.701Z,102139.22
2019-05-12T07:32:16.442Z,102147.35
2019-05-12T07:34:45.367Z,102147.44
2019-05-12T07:37:23.175Z,102160.86
2019-05-12T07:39:58.275Z,102159.61
2019-05-12T07:42:39.328Z,102162.16
2019-05-12T07:45:20.036Z,102169.33
2019-05-12T07:47:49.976Z,102161.69
2019-05-12T07:50:27.348Z,102174.88
2019-05-12T07:53:04.108Z,102180.59
2019-05-12T07:55:39.612Z,102171.74
2019-05-12T07:58:18.499Z,102169.08
2019-05-12T08:00:53.966Z,102176.23
2019-05-12T08:03:27.464Z,102177.53
2019-05-12T08:06:04.493Z,102188.36
2019-05-12T08:08:41.935Z,102190.30
2019-05-12T08:11:14.955Z,102187.09
2019-05-12T08:13:51.110Z,102192.83
2019-05-12T08:16:29.717Z,102195.81
2019-05-12T08:19:00.767Z,102194.28
2019-05-12T08:21:43.550Z,102200.91
2019-05-12T08:24:14.316Z,102209.80
2019-05-12T08:26:49.578Z,102201.59
2019-05-12T08:29:25.326Z,102201.41
2019-05-12T08:32:00.432Z,102196.03
2019-05-12T08:34:35.368Z,102202.09
2019-05-12T08:37:09.531Z,102200.60
2019-05-12T08:39:44.605Z,102201.86
2019-05-12T08:42:18.688Z,102198.72
2019-05-12T08:44:54.223Z,102200.09
2019-05-12T08:47:29.037Z,102196.61
2019-05-12T08:50:04.857Z,102192.36
2019-05-12T08:52:41.943Z,102194.01
2019-05-12T08:55:25.069Z,102195.98
2019-05-12T08:57:54.747Z,102189.66
2019-05-12T09:00:45.434Z,102185.16
2019-05-12T09:03:14.406Z,102191.77
2019-05-12T09:05:50.317Z,102197.33
2019-05-12T09:08:24.456Z,102199.17
2019-05-12T09:10:58.758Z,102189.47
2019-05-12T09:13:33.948Z,102195.13
2019-05-12T09:16:09.805Z,102195.83
2019-05-12T09:18:45.929Z,102194.45
2019-05-12T09:21:23.668Z,102200.24
2019-05-12T09:23:56.852Z,102198.73
2019-05-12T09:26:34.193Z,102199.41
2019-05-12T09:29:07.611Z,102201.95
2019-05-12T09:31:43.911Z,102193.91
2019-05-12T09:34:17.583Z,102198.16
2019-05-12T09:36:59.473Z,102204.91
2019-05-12T09:39:28.130Z,102210.82
2019-05-12T09:42:03.779Z,102213.91
2019-05-12T09:44:41.158Z,102205.56
2019-05-12T09:47:23.294Z,102211.36
2019-05-12T09:49:50.231Z,102209.64
2019-05-12T09:52:27.300Z,102214.21
2019-05-12T09:55:01.159Z,102225.65
2019-05-12T09:57:40.607Z,102222.06
2019-05-12T10:00:13.596Z,102212.29
2019-05-12T10:02:51.189Z,102214.35
2019-05-12T10:05:21.989Z,102214.13
2019-05-12T10:07:55.795Z,102220.17
2019-05-12T10:10:35.455Z,102216.94
2019-05-12T10:13:07.112Z,102221.70
2019-05-12T10:15:42.744Z,102215.44
2019-05-12T10:18:16.531Z,102226.43
2019-05-12T10:20:50.218Z,102228.19
2019-05-12T10:23:27.275Z,102238.95
2019-05-12T10:26:01.492Z,102226.72
2019-05-12T10:28:36.602Z,102240.47
2019-05-12T10:31:13.853Z,102234.73
2019-05-12T10:33:48.895Z,102234.52
2019-05-12T10:36:23.340Z,102230.50
2019-05-12T10:38:59.589Z,102222.05
2019-05-12T10:41:34.232Z,102229.03
2019-05-12T10:44:09.674Z,102229.25
2019-05-12T10:46:44.075Z,102236.31
2019-05-12T10:49:17.800Z,102241.03
2019-05-12T10:51:53.887Z,102237.44
2019-05-12T10:54:27.848Z,102244.41
2019-05-12T10:57:04.742Z,102240.51
2019-05-12T10:59:38.915Z,102249.73
2019-05-12T11:02:14.514Z,102253.31
2019-05-12T11:04:48.473Z,102253.48
2019-05-12T11:07:22.907Z,102249.92
2019-05-12T11:10:05.642Z,102266.75
2019-05-12T11:12:35.380Z,102262.82
2019-05-12T11:15:13.642Z,102263.50
2019-05-12T11:18:04.896Z,102266.31
2019-05-12T11:20:40.617Z,102269.98
2019-05-12T11:23:14.754Z,102276.77
2019-05-12T11:25:48.550Z,102274.95
2019-05-12T11:28:24.414Z,102270.58
2019-05-12T11:30:59.564Z,102270.02
2019-05-12T11:33:35.201Z,102269.89
2019-05-12T11:36:13.529Z,102259.73
2019-05-12T11:38:48.982Z,102271.89
2019-05-12T11:41:28.380Z,102279.17
2019-05-12T11:44:00.607Z,102285.72
2019-05-12T11:46:36.410Z,102291.87
2019-05-12T11:49:13.847Z,102281.28
2019-05-12T11:51:49.305Z,102280.66
2019-05-12T11:54:24.237Z,102270.17
2019-05-12T11:56:59.987Z,102273.34
2019-05-12T11:59:35.916Z,102276.64
2019-05-12T12:02:10.647Z,102281.45
2019-05-12T12:04:48.444Z,102296.22
2019-05-12T12:07:24.443Z,102298.72
2019-05-12T12:09:59.569Z,102304.00
2019-05-12T12:12:34.607Z,102304.48
2019-05-12T12:15:10.526Z,102300.08
2019-05-12T12:17:44.335Z,102295.22
2019-05-12T12:20:22.401Z,102290.66
2019-05-12T12:23:00.200Z,102293.73
2019-05-12T12:25:34.232Z,102304.27
2019-05-12T12:28:07.947Z,102307.71
2019-05-12T12:30:47.238Z,102308.22
2019-05-12T12:33:19.588Z,102307.91
2019-05-12T12:35:56.586Z,102303.30
2019-05-12T12:38:29.094Z,102308.07
2019-05-12T12:41:06.985Z,102302.73
2019-05-12T12:43:43.191Z,102311.48
2019-05-12T12:49:29.317Z,102318.85
2019-05-12T12:52:03.364Z,102318.20
2019-05-12T12:54:39.144Z,102323.28
2019-05-12T12:57:13.704Z,102341.97
2019-05-12T12:59:51.223Z,102334.12
2019-05-12T13:02:24.751Z,102336.43
2019-05-12T13:04:58.771Z,102333.44
2019-05-12T13:07:33.413Z,102340.59
2019-05-12T13:10:09.637Z,102336.70
2019-05-12T13:12:43.955Z,102329.88
2019-05-12T13:15:21.001Z,102337.66
2019-05-12T13:17:54.050Z,102340.98
2019-05-12T13:20:28.552Z,102344.98
2019-05-12T13:23:04.136Z,102352.87
2019-05-12T13:25:38.864Z,102346.74
2019-05-12T13:28:19.060Z,102343.07
2019-05-12T13:30:54.008Z,102350.75
2019-05-12T13:33:27.358Z,102353.02
2019-05-12T13:36:04.145Z,102353.71
2019-05-12T13:38:40.961Z,102363.94
2019-05-12T13:41:19.749Z,102363.18
2019-05-12T13:43:56.150Z,102365.81
2019-05-12T13:46:27.454Z,102370.81
2019-05-12T13:49:03.198Z,102369.42
2019-05-12T13:51:37.102Z,102368.92
2019-05-12T13:54:14.222Z,102379.55
2019-05-12T13:56:47.476Z,102373.91
2019-05-12T13:59:25.234Z,102378.20
2019-05-12T14:01:56.587Z,102378.61
2019-05-12T14:04:30.936Z,102380.13
2019-05-12T14:07:09.355Z,102391.48
2019-05-12T14:09:43.721Z,102394.34
2019-05-12T14:12:17.983Z,102391.77
2019-05-12T14:14:52.691Z,102395.08
2019-05-12T14:17:31.127Z,102402.13
2019-05-12T14:20:04.034Z,102396.45
2019-05-12T14:22:41.778Z,102400.85
2019-05-12T14:25:20.903Z,102401.47
2019-05-12T14:27:54.030Z,102400.02
2019-05-12T14:30:27.849Z,102399.13
2019-05-12T14:33:03.434Z,102401.70
2019-05-12T14:35:40.860Z,102399.82
2019-05-12T14:38:34.026Z,102388.95
2019-05-12T14:41:11.727Z,102391.12
2019-05-12T14:43:48.056Z,102385.80
2019-05-12T14:46:24.241Z,102390.20
2019-05-12T14:49:03.493Z,102387.56
2019-05-12T14:51:36.837Z,102391.81
2019-05-12T14:54:13.684Z,102401.05
2019-05-12T14:56:55.724Z,102405.38
2019-05-12T14:59:24.424Z,102405.14
2019-05-12T15:01:59.689Z,102412.23
2019-05-12T15:04:34.880Z,102411.91
2019-05-12T15:07:10.187Z,102412.89
2019-05-12T15:09:45.692Z,102413.52
2019-05-12T15:12:21.093Z,102413.66
2019-05-12T15:14:54.800Z,102420.67
2019-05-12T15:17:29.987Z,102413.08
2019-05-12T15:20:06.509Z,102414.20
2019-05-12T15:22:48.141Z,102410.94
2019-05-12T15:25:14.886Z,102417.27
2019-05-12T15:27:48.839Z,102417.45
2019-05-12T15:30:26.494Z,102420.20
2019-05-12T15:32:58.842Z,102415.47
2019-05-12T15:35:34.417Z,102425.30
2019-05-12T15:38:09.375Z,102426.59
2019-05-12T15:40:43.976Z,102417.84
2019-05-12T15:43:20.905Z,102424.20
2019-05-12T15:45:59.366Z,102420.81
2019-05-12T15:48:34.261Z,102425.03
2019-05-12T15:51:09.004Z,102434.22
2019-05-12T15:53:45.287Z,102429.96
2019-05-12T15:56:23.048Z,102428.95
2019-05-12T15:59:00.844Z,102432.28
2019-05-12T16:01:33.480Z,102426.17
2019-05-12T16:04:11.825Z,102430.66
2019-05-12T16:06:53.354Z,102433.97
2019-05-12T16:09:21.260Z,102437.05
2019-05-12T16:11:56.400Z,102434.83
2019-05-12T16:14:36.041Z,102437.73
2019-05-12T16:17:06.728Z,102433.94
2019-05-12T16:19:40.525Z,102439.87
2019-05-12T16:22:14.216Z,102445.25
2019-05-12T16:24:50.500Z,102451.39
2019-05-12T16:27:33.125Z,102442.28
2019-05-12T16:30:00.292Z,102448.89
2019-05-12T16:32:43.158Z,102452.22
2019-05-12T16:35:09.912Z,102455.94
2019-05-12T16:37:44.540Z,102455.22
2019-05-12T16:40:18.556Z,102453.06
2019-05-12T16:42:59.349Z,102459.17
2019-05-12T16:45:29.347Z,102463.67
2019-05-12T16:48:05.476Z,102461.98
2019-05-12T16:50:39.156Z,102476.35
2019-05-12T16:53:21.349Z,102478.04
2019-05-12T16:55:50.024Z,102486.72
2019-05-12T16:58:32.591Z,102479.72
2019-05-12T17:01:00.829Z,102488.48
2019-05-12T17:03:34.392Z,102490.99
2019-05-12T17:06:11.187Z,102493.31
2019-05-12T17:08:45.538Z,102494.55
2019-05-12T17:11:27.223Z,102493.28
2019-05-12T17:14:01.343Z,102495.05
2019-05-12T17:16:33.707Z,102499.82
2019-05-12T17:19:10.345Z,102506.53
2019-05-12T17:21:49.445Z,102506.38
2019-05-12T17:24:20.782Z,102509.67
2019-05-12T17:26:54.861Z,102509.74
2019-05-12T17:29:33.521Z,102512.83
2019-05-12T17:32:07.788Z,102513.46
2019-05-12T17:34:45.846Z,102527.03
2019-05-12T17:37:19.172Z,102519.80
2019-05-12T17:39:53.294Z,102527.82
2019-05-12T17:42:30.013Z,102525.34
2019-05-12T17:45:09.521Z,102532.93
2019-05-12T17:47:44.521Z,102537.17
2019-05-12T17:50:20.913Z,102542.82
2019-05-12T17:52:59.309Z,102538.05
2019-05-12T17:55:31.462Z,102551.50
2019-05-12T17:58:05.822Z,102551.95
2019-05-12T18:00:47.586Z,102556.17
2019-05-12T18:03:22.170Z,102561.48
2019-05-12T18:05:55.696Z,102566.94
2019-05-12T18:08:34.975Z,102560.25
2019-05-12T18:11:11.359Z,102565.80
2019-05-12T18:13:46.692Z,102572.37
2019-05-12T18:16:24.418Z,102576.94
2019-05-12T18:18:56.290Z,102579.56
2019-05-12T18:21:34.047Z,102581.85
2019-05-12T18:24:11.032Z,102584.13
2019-05-12T18:26:48.707Z,102583.95
2019-05-12T18:29:23.654Z,102590.84
2019-05-12T18:32:01.646Z,102599.87
2019-05-12T18:34:37.335Z,102604.27
2019-05-12T18:37:13.437Z,102599.48
2019-05-12T18:39:47.325Z,102603.47
2019-05-12T18:42:24.548Z,102611.82
2019-05-12T18:45:04.625Z,102612.66
2019-05-12T18:47:37.075Z,102621.89
2019-05-12T18:50:14.035Z,102622.59
2019-05-12T18:52:48.888Z,102623.92
2019-05-12T18:55:29.182Z,102622.39
2019-05-12T18:58:04.322Z,102632.27
2019-05-12T19:01:03.368Z,102635.62
2019-05-12T19:03:47.890Z,102639.76
2019-05-12T19:06:14.280Z,102646.14
2019-05-12T19:08:49.023Z,102651.49
2019-05-12T19:11:31.740Z,102654.33
2019-05-12T19:14:01.039Z,102651.76
2019-05-12T19:16:35.748Z,102659.33
2019-05-12T19:19:14.793Z,102662.08
2019-05-12T19:21:46.846Z,102662.05
2019-05-12T19:24:22.131Z,102672.63
2019-05-12T19:26:55.769Z,102677.16
2019-05-12T19:29:38.654Z,102680.37
2019-05-12T19:32:06.023Z,102682.72
2019-05-12T19:34:40.077Z,102691.41
2019-05-12T19:37:14.342Z,102695.90
2019-05-12T19:39:54.937Z,102703.63
2019-05-12T19:42:28.756Z,102706.38
2019-05-12T19:45:07.008Z,102708.72
2019-05-12T19:47:39.516Z,102711.36
2019-05-12T19:50:18.404Z,102705.95
2019-05-12T19:52:53.436Z,102713.80
2019-05-12T19:55:28.228Z,102716.92
2019-05-12T19:58:10.481Z,102716.13
2019-05-12T20:00:38.502Z,102716.17
2019-05-12T20:03:13.998Z,102718.01
2019-05-12T20:05:50.365Z,102718.82
2019-05-12T20:08:24.284Z,102724.00
2019-05-12T20:11:00.350Z,102724.53
2019-05-12T20:13:36.008Z,102724.47
2019-05-12T20:16:11.478Z,102726.25
2019-05-12T20:18:49.160Z,102728.64
2019-05-12T20:21:26.052Z,102730.72
2019-05-12T20:23:58.771Z,102737.20
2019-05-12T20:26:32.995Z,102736.86
2019-05-12T20:29:08.324Z,102742.86
2019-05-12T20:31:44.333Z,102744.33
2019-05-12T20:34:20.642Z,102744.81
2019-05-12T20:36:59.154Z,102750.46
2019-05-12T20:39:32.007Z,102749.15
2019-05-12T20:42:08.240Z,102753.55
2019-05-12T20:44:43.696Z,102754.86
2019-05-12T20:47:17.810Z,102760.94
2019-05-12T20:49:52.846Z,102761.47
2019-05-12T20:52:28.743Z,102764.52
2019-05-12T20:55:03.646Z,102766.20
2019-05-12T20:57:40.057Z,102774.50
2019-05-12T21:00:45.589Z,102778.87
2019-05-12T21:03:19.226Z,102774.50
2019-05-12T21:05:58.130Z,102776.26
2019-05-12T21:08:29.051Z,102784.92
2019-05-12T21:11:02.989Z,102781.97
2019-05-12T21:13:36.782Z,102789.75
2019-05-12T21:16:17.449Z,102790.65
2019-05-12T21:18:50.685Z,102789.38
2019-05-12T21:21:27.618Z,102800.58
2019-05-12T21:23:59.558Z,102800.14
2019-05-12T21:26:34.654Z,102809.23
2019-05-12T21:29:09.430Z,102805.80
2019-05-12T21:31:44.575Z,102818.70
2019-05-12T21:34:21.257Z,102819.16
2019-05-12T21:36:59.054Z,102823.94
2019-05-12T21:39:29.350Z,102825.64
2019-05-12T21:42:04.878Z,102825.20
2019-05-12T21:44:41.466Z,102823.05
2019-05-12T21:47:14.388Z,102828.22
2019-05-12T21:49:52.916Z,102830.82
2019-05-12T21:52:23.934Z,102832.98
2019-05-12T21:54:59.385Z,102844.16
2019-05-12T21:57:34.645Z,102841.57
2019-05-12T22:00:20.163Z,102843.72
2019-05-12T22:02:56.596Z,102847.59
2019-05-12T22:05:48.170Z,102847.15
2019-05-12T22:08:17.695Z,102848.44
2019-05-12T22:10:43.745Z,102848.45
2019-05-12T22:13:19.336Z,102849.27
2019-05-12T22:15:57.051Z,102851.86
2019-05-12T22:18:33.369Z,102849.66
2019-05-12T22:21:08.850Z,102851.75
2019-05-12T22:23:50.999Z,102854.73
2019-05-12T22:26:19.158Z,102855.56
2019-05-12T22:28:54.654Z,102853.39
2019-05-12T22:31:30.235Z,102858.94
2019-05-12T22:34:04.187Z,102859.38
2019-05-12T22:36:39.320Z,102864.97
2019-05-12T22:39:14.308Z,102871.77
2019-05-12T22:41:48.180Z,102869.24
2019-05-12T22:44:24.872Z,102870.46
2019-05-12T22:47:04.218Z,102871.30
2019-05-12T22:49:34.049Z,102871.74
2019-05-12T22:52:07.889Z,102867.05
2019-05-12T22:54:46.892Z,102872.60
2019-05-12T22:57:17.342Z,102873.87
2019-05-12T22:59:53.220Z,102877.63
2019-05-12T23:02:29.949Z,102871.11
2019-05-12T23:05:03.573Z,102872.30
2019-05-12T23:07:37.346Z,102872.29
2019-05-12T23:10:14.190Z,102882.91
2019-05-12T23:12:50.241Z,102887.50
2019-05-12T23:15:24.306Z,102890.50
2019-05-12T23:17:57.771Z,102888.28
2019-05-12T23:20:35.633Z,102889.48
2019-05-12T23:23:14.166Z,102889.84
2019-05-12T23:25:44.320Z,102891.91
2019-05-12T23:28:18.486Z,102890.59
2019-05-12T23:30:53.587Z,102887.08
2019-05-12T23:33:31.710Z,102887.45
2019-05-12T23:36:04.023Z,102885.31
2019-05-12T23:38:39.054Z,102889.94
2019-05-12T23:41:13.586Z,102889.98
2019-05-12T23:43:47.748Z,102892.92
2019-05-12T23:46:23.609Z,102889.84
2019-05-12T23:48:58.207Z,102893.25
2019-05-12T23:51:34.064Z,102888.89
2019-05-12T23:54:07.825Z,102889.72
2019-05-12T23:56:41.486Z,102884.89
2019-05-12T23:59:15.280Z,102882.70
